createdAt,value
2022-10-05T00:00:47.269Z,7.30
2022-10-05T00:03:14.502Z,7.30
2022-10-05T00:05:42.142Z,7.30
2022-10-05T00:08:15.802Z,7.30
2022-10-05T00:10:43.174Z,7.20
2022-10-05T00:13:17.534Z,7.20
2022-10-05T00:15:45.084Z,7.20
2022-10-05T00:18:16.243Z,7.20
2022-10-05T00:20:44.373Z,7.10
2022-10-05T00:23:19.329Z,7.10
2022-10-05T00:25:47.147Z,7.00
2022-10-05T00:28:26.572Z,7.00
2022-10-05T00:31:01.435Z,7.00
2022-10-05T00:33:28.812Z,7.10
2022-10-05T00:35:56.112Z,7.00
2022-10-05T00:38:23.571Z,7.00
2022-10-05T00:41:10.707Z,7.00
2022-10-05T00:43:55.327Z,7.00
2022-10-05T00:46:27.477Z,6.90
2022-10-05T00:49:21.956Z,6.90
2022-10-05T00:52:20.226Z,6.90
2022-10-05T00:54:59.932Z,7.00
2022-10-05T00:57:48.620Z,7.00
2022-10-05T01:00:20.095Z,7.00
2022-10-05T01:03:07.154Z,7.00
2022-10-05T01:05:35.263Z,7.00
2022-10-05T01:08:02.453Z,7.00
2022-10-05T01:10:38.090Z,7.00
2022-10-05T01:13:11.163Z,7.10
2022-10-05T01:15:59.359Z,7.10
2022-10-05T01:18:34.341Z,7.00
2022-10-05T01:21:23.817Z,6.90
2022-10-05T01:24:11.866Z,6.90
2022-10-05T01:27:04.733Z,6.90
2022-10-05T01:29:43.838Z,6.80
2022-10-05T01:32:18.810Z,6.70
2022-10-05T01:34:45.884Z,6.70
2022-10-05T01:37:22.492Z,6.80
2022-10-05T01:40:12.894Z,6.70
2022-10-05T01:43:03.656Z,6.70
2022-10-05T01:46:10.626Z,6.70
2022-10-05T01:49:17.522Z,6.70
2022-10-05T01:51:54.621Z,6.60
2022-10-05T01:54:37.303Z,6.60
2022-10-05T01:57:08.815Z,6.60
2022-10-05T01:59:50.295Z,6.50
2022-10-05T02:02:22.259Z,6.50
2022-10-05T02:05:06.677Z,6.40
2022-10-05T02:07:40.189Z,6.40
2022-10-05T02:10:18.201Z,6.40
2022-10-05T02:12:48.285Z,6.40
2022-10-05T02:15:20.917Z,6.40
2022-10-05T02:17:52.945Z,6.40
2022-10-05T02:20:25.798Z,6.40
2022-10-05T02:22:58.329Z,6.40
2022-10-05T02:25:33.747Z,6.40
2022-10-05T02:28:07.754Z,6.40
2022-10-05T02:30:43.278Z,6.40
2022-10-05T02:33:19.870Z,6.40
2022-10-05T02:35:47.324Z,6.40
2022-10-05T02:38:27.118Z,6.30
2022-10-05T02:41:14.277Z,6.20
2022-10-05T02:43:43.194Z,6.20
2022-10-05T02:46:35.353Z,6.20
2022-10-05T02:49:31.055Z,6.20
2022-10-05T02:52:06.763Z,6.10
2022-10-05T02:55:01.710Z,6.10
2022-10-05T02:57:38.757Z,6.10
2022-10-05T03:00:15.257Z,6.10
2022-10-05T03:02:52.026Z,6.10
2022-10-05T03:05:22.689Z,6.10
2022-10-05T03:07:54.118Z,6.10
2022-10-05T03:11:01.058Z,6.10
2022-10-05T03:13:38.257Z,6.10
2022-10-05T03:16:05.417Z,6.10
2022-10-05T03:18:59.313Z,6.00
2022-10-05T03:22:01.909Z,6.00
2022-10-05T03:24:35.498Z,6.00
2022-10-05T03:27:25.275Z,6.00
2022-10-05T03:30:12.647Z,5.90
2022-10-05T03:33:03.161Z,5.90
2022-10-05T03:35:53.222Z,5.80
2022-10-05T03:39:00.211Z,5.80
2022-10-05T03:41:50.555Z,5.80
2022-10-05T03:44:31.372Z,5.70
2022-10-05T03:47:01.222Z,5.50
2022-10-05T03:49:29.517Z,5.60
2022-10-05T03:52:06.079Z,5.60
2022-10-05T03:54:39.533Z,5.50
2022-10-05T03:57:13.537Z,5.50
2022-10-05T03:59:56.971Z,5.40
2022-10-05T04:02:26.839Z,5.40
2022-10-05T04:05:03.913Z,5.50
2022-10-05T04:07:36.312Z,5.50
2022-10-05T04:10:10.046Z,5.50
2022-10-05T04:12:42.580Z,5.50
2022-10-05T04:15:19.484Z,5.60
2022-10-05T04:17:52.471Z,5.60
2022-10-05T04:20:21.864Z,5.50
2022-10-05T04:22:54.217Z,5.50
2022-10-05T04:25:31.876Z,5.50
2022-10-05T04:28:29.593Z,5.50
2022-10-05T04:31:02.867Z,5.60
2022-10-05T04:33:31.706Z,5.60
2022-10-05T04:36:18.310Z,5.60
2022-10-05T04:38:46.474Z,5.60
2022-10-05T04:41:37.727Z,5.40
2022-10-05T04:44:13.361Z,5.40
2022-10-05T04:46:42.995Z,5.40
2022-10-05T04:49:29.977Z,5.30
2022-10-05T04:52:17.884Z,5.30
2022-10-05T04:55:13.921Z,5.30
2022-10-05T04:58:20.867Z,5.40
2022-10-05T05:01:11.964Z,5.40
2022-10-05T05:04:12.259Z,5.50
2022-10-05T05:06:42.319Z,5.50
2022-10-05T05:09:38.226Z,5.40
2022-10-05T05:12:12.305Z,5.50
2022-10-05T05:15:04.372Z,5.50
2022-10-05T05:17:32.597Z,5.50
2022-10-05T05:20:15.798Z,5.50
2022-10-05T05:22:47.859Z,5.60
2022-10-05T05:25:21.978Z,5.70
2022-10-05T05:27:56.844Z,5.80
2022-10-05T05:30:53.632Z,5.80
2022-10-05T05:33:23.382Z,5.90
2022-10-05T05:36:23.359Z,6.00
2022-10-05T05:39:04.002Z,6.10
2022-10-05T05:41:39.419Z,6.30
2022-10-05T05:44:48.659Z,6.40
2022-10-05T05:47:38.061Z,6.60
2022-10-05T05:50:07.992Z,6.70
2022-10-05T05:52:46.008Z,6.90
2022-10-05T05:55:29.948Z,7.00
2022-10-05T05:58:11.419Z,7.20
2022-10-05T06:00:48.787Z,7.30
2022-10-05T06:03:37.002Z,7.40
2022-10-05T06:06:10.035Z,7.50
2022-10-05T06:08:42.468Z,7.70
2022-10-05T06:11:35.550Z,7.80
2022-10-05T06:14:12.767Z,8.00
2022-10-05T06:16:55.143Z,8.40
2022-10-05T06:19:24.212Z,9.80
2022-10-05T06:22:07.801Z,11.90
2022-10-05T06:24:40.701Z,14.00
2022-10-05T06:27:34.911Z,15.70
2022-10-05T06:30:06.850Z,17.90
2022-10-05T06:32:37.056Z,19.10
2022-10-05T06:35:07.932Z,20.10
2022-10-05T06:37:38.946Z,20.90
2022-10-05T06:40:14.419Z,21.40
2022-10-05T06:43:01.667Z,21.30
2022-10-05T06:45:53.302Z,21.40
2022-10-05T06:48:31.097Z,21.30
2022-10-05T06:51:31.410Z,21.70
2022-10-05T06:54:44.052Z,22.00
2022-10-05T06:57:39.903Z,22.70
2022-10-05T07:00:28.978Z,22.90
2022-10-05T07:03:21.804Z,24.00
2022-10-05T07:06:05.885Z,24.20
2022-10-05T07:08:52.885Z,23.60
2022-10-05T07:11:58.443Z,23.60
2022-10-05T07:14:46.374Z,24.30
2022-10-05T07:17:42.662Z,24.90
2022-10-05T07:20:33.058Z,24.40
2022-10-05T07:23:10.125Z,24.50
2022-10-05T07:25:50.140Z,24.60
2022-10-05T07:28:38.145Z,25.10
2022-10-05T07:31:10.854Z,25.30
2022-10-05T07:33:39.048Z,25.50
2022-10-05T07:36:32.634Z,26.40
2022-10-05T07:39:11.750Z,26.30
2022-10-05T07:41:47.755Z,26.00
2022-10-05T07:44:36.703Z,26.10
2022-10-05T07:47:33.528Z,26.40
2022-10-05T07:50:08.640Z,26.00
2022-10-05T07:52:38.065Z,26.80
2022-10-05T07:55:20.609Z,27.10
2022-10-05T07:58:16.709Z,27.50
2022-10-05T08:01:24.247Z,27.90
2022-10-05T08:04:03.462Z,28.20
2022-10-05T08:06:42.443Z,27.90
2022-10-05T08:09:29.421Z,27.80
2022-10-05T08:12:01.124Z,27.90
2022-10-05T08:14:52.949Z,28.60
2022-10-05T08:17:30.151Z,28.60
2022-10-05T08:20:09.932Z,28.70
2022-10-05T08:22:46.066Z,29.10
2022-10-05T08:25:26.587Z,28.60
2022-10-05T08:28:10.720Z,27.40
2022-10-05T08:30:54.488Z,26.60
2022-10-05T08:33:23.493Z,25.80
2022-10-05T08:36:05.647Z,24.30
2022-10-05T08:38:33.812Z,23.50
2022-10-05T08:41:00.853Z,22.80
2022-10-05T08:43:35.129Z,22.10
2022-10-05T08:46:27.882Z,21.80
2022-10-05T08:49:22.487Z,21.40
2022-10-05T08:52:00.909Z,21.50
2022-10-05T08:54:30.144Z,21.60
2022-10-05T08:57:12.124Z,21.40
2022-10-05T08:59:56.071Z,21.30
2022-10-05T09:02:23.167Z,21.30
2022-10-05T09:05:13.565Z,21.10
2022-10-05T09:08:20.914Z,20.90
2022-10-05T09:10:58.293Z,20.70
2022-10-05T09:14:05.159Z,21.00
2022-10-05T09:16:50.719Z,21.40
2022-10-05T09:19:37.691Z,21.40
2022-10-05T09:22:30.399Z,21.60
2022-10-05T09:25:03.869Z,21.80
2022-10-05T09:27:37.997Z,21.90
2022-10-05T09:30:13.042Z,21.70
2022-10-05T09:32:41.247Z,21.90
2022-10-05T09:35:26.031Z,21.90
2022-10-05T09:38:16.081Z,22.00
2022-10-05T09:41:04.026Z,22.00
2022-10-05T09:43:40.285Z,22.20
2022-10-05T09:46:28.443Z,22.30
2022-10-05T09:49:35.365Z,22.10
2022-10-05T09:52:31.766Z,22.20
2022-10-05T09:55:25.800Z,22.10
2022-10-05T09:58:30.730Z,22.20
2022-10-05T10:01:08.890Z,22.30
2022-10-05T10:04:07.241Z,22.20
2022-10-05T10:07:05.047Z,22.30
2022-10-05T10:09:53.161Z,22.60
2022-10-05T10:12:47.713Z,22.20
2022-10-05T10:15:54.768Z,22.00
2022-10-05T10:18:39.870Z,21.60
2022-10-05T10:21:35.202Z,21.50
2022-10-05T10:24:21.621Z,21.10
2022-10-05T10:26:57.553Z,21.30
2022-10-05T10:29:46.054Z,21.60
2022-10-05T10:32:21.848Z,21.50
2022-10-05T10:35:09.276Z,21.50
2022-10-05T10:37:58.775Z,21.90
2022-10-05T10:40:49.455Z,22.00
2022-10-05T10:43:22.085Z,22.30
2022-10-05T10:45:53.894Z,22.30
2022-10-05T10:48:40.888Z,22.30
2022-10-05T10:51:29.398Z,22.20
2022-10-05T10:54:20.021Z,22.00
2022-10-05T10:57:04.510Z,22.00
2022-10-05T11:00:15.681Z,22.00
2022-10-05T11:02:47.403Z,22.10
2022-10-05T11:05:29.006Z,22.40
2022-10-05T11:08:31.697Z,22.80
2022-10-05T11:11:22.631Z,23.00
2022-10-05T11:14:02.908Z,22.90
2022-10-05T11:17:09.778Z,23.00
2022-10-05T11:19:40.763Z,22.70
2022-10-05T11:22:31.020Z,22.60
2022-10-05T11:24:58.175Z,22.40
2022-10-05T11:28:01.081Z,22.20
2022-10-05T11:30:51.530Z,22.00
2022-10-05T11:33:58.500Z,22.00
2022-10-05T11:37:01.491Z,21.80
2022-10-05T11:39:52.910Z,21.60
2022-10-05T11:42:31.683Z,21.60
2022-10-05T11:45:22.109Z,21.70
2022-10-05T11:48:07.374Z,21.70
2022-10-05T11:50:40.220Z,21.60
2022-10-05T11:53:22.549Z,21.60
2022-10-05T11:56:09.849Z,21.70
2022-10-05T11:58:54.348Z,21.90
2022-10-05T12:01:28.437Z,21.90
2022-10-05T12:04:14.036Z,21.70
2022-10-05T12:07:01.116Z,21.60
2022-10-05T12:09:30.319Z,21.80
2022-10-05T12:12:27.315Z,21.90
2022-10-05T12:15:06.360Z,21.80
2022-10-05T12:17:43.518Z,21.80
2022-10-05T12:20:34.962Z,21.70
2022-10-05T12:23:11.812Z,21.80
2022-10-05T12:25:48.347Z,21.90
2022-10-05T12:28:22.958Z,21.80
2022-10-05T12:31:07.628Z,21.70
2022-10-05T12:33:39.281Z,21.70
2022-10-05T12:36:15.212Z,21.60
2022-10-05T12:38:51.099Z,21.50
2022-10-05T12:41:22.813Z,21.40
2022-10-05T12:44:07.063Z,21.40
2022-10-05T12:46:42.632Z,21.50
2022-10-05T12:49:25.324Z,21.30
2022-10-05T12:51:58.791Z,21.30
2022-10-05T12:54:49.183Z,21.30
2022-10-05T12:57:32.281Z,21.40
2022-10-05T13:00:11.425Z,21.40
2022-10-05T13:02:51.190Z,21.40
2022-10-05T13:05:28.185Z,21.40
2022-10-05T13:08:17.848Z,21.20
2022-10-05T13:11:05.012Z,21.20
2022-10-05T13:13:41.116Z,21.30
2022-10-05T13:16:16.598Z,21.20
2022-10-05T13:18:49.898Z,21.20
2022-10-05T13:21:21.045Z,21.10
2022-10-05T13:24:09.871Z,21.00
2022-10-05T13:26:43.737Z,21.00
2022-10-05T13:29:24.163Z,21.00
2022-10-05T13:32:00.313Z,21.00
2022-10-05T13:34:37.249Z,20.90
2022-10-05T13:37:28.802Z,20.90
2022-10-05T13:40:01.479Z,21.00
2022-10-05T13:42:34.509Z,21.10
2022-10-05T13:45:04.834Z,21.10
2022-10-05T13:48:03.292Z,21.00
2022-10-05T13:50:34.799Z,21.00
2022-10-05T13:53:30.014Z,21.00
2022-10-05T13:56:21.624Z,21.00
2022-10-05T13:59:12.857Z,21.00
2022-10-05T14:01:52.757Z,20.90
2022-10-05T14:04:24.736Z,20.80
2022-10-05T14:06:53.326Z,20.80
2022-10-05T14:09:20.375Z,20.80
2022-10-05T14:11:51.275Z,20.80
2022-10-05T14:14:43.103Z,20.80
2022-10-05T14:17:17.050Z,20.70
2022-10-05T14:19:47.951Z,20.70
2022-10-05T14:22:22.893Z,20.60
2022-10-05T14:25:09.843Z,20.70
2022-10-05T14:27:49.241Z,20.60
2022-10-05T14:30:16.323Z,20.60
2022-10-05T14:32:51.625Z,20.60
2022-10-05T14:35:22.290Z,20.60
2022-10-05T14:38:00.255Z,20.50
2022-10-05T14:40:29.490Z,20.50
2022-10-05T14:43:00.742Z,20.50
2022-10-05T14:45:30.796Z,20.40
2022-10-05T14:48:01.847Z,20.40
2022-10-05T14:50:31.509Z,20.30
2022-10-05T14:53:17.430Z,20.30
2022-10-05T14:55:50.030Z,20.00
2022-10-05T14:58:55.787Z,20.00
2022-10-05T15:01:27.105Z,19.90
2022-10-05T15:03:59.764Z,19.80
2022-10-05T15:06:39.913Z,19.70
2022-10-05T15:09:33.957Z,19.60
2022-10-05T15:12:04.699Z,19.60
2022-10-05T15:14:43.187Z,19.40
2022-10-05T15:17:21.196Z,19.40
2022-10-05T15:20:24.615Z,19.30
2022-10-05T15:23:03.813Z,19.20
2022-10-05T15:25:55.417Z,19.20
2022-10-05T15:29:03.468Z,19.10
2022-10-05T15:31:48.835Z,19.10
2022-10-05T15:34:29.505Z,19.00
2022-10-05T15:37:23.639Z,18.80
2022-10-05T15:40:02.744Z,18.80
2022-10-05T15:42:38.872Z,18.70
2022-10-05T15:45:35.386Z,18.60
2022-10-05T15:48:08.132Z,18.50
2022-10-05T15:50:46.027Z,18.50
2022-10-05T15:53:52.968Z,18.40
2022-10-05T15:56:34.022Z,18.30
2022-10-05T15:59:16.879Z,18.20
2022-10-05T16:01:53.031Z,18.10
2022-10-05T16:04:30.183Z,18.10
2022-10-05T16:07:20.853Z,18.00
2022-10-05T16:10:05.678Z,17.90
2022-10-05T16:12:38.201Z,17.90
2022-10-05T16:15:27.642Z,17.70
2022-10-05T16:18:10.792Z,17.70
2022-10-05T16:20:51.138Z,17.60
2022-10-05T16:23:19.400Z,17.50
2022-10-05T16:25:59.822Z,17.40
2022-10-05T16:29:06.804Z,17.30
2022-10-05T16:31:44.243Z,17.30
2022-10-05T16:34:29.716Z,17.20
2022-10-05T16:37:09.441Z,17.10
2022-10-05T16:40:01.470Z,17.00
2022-10-05T16:42:49.764Z,16.90
2022-10-05T16:45:45.436Z,16.80
2022-10-05T16:48:18.116Z,16.80
2022-10-05T16:51:01.891Z,16.60
2022-10-05T16:53:35.732Z,16.50
2022-10-05T16:56:08.788Z,16.50
2022-10-05T16:58:43.313Z,16.30
2022-10-05T17:01:30.294Z,16.20
2022-10-05T17:04:33.843Z,16.10
2022-10-05T17:07:35.223Z,16.00
2022-10-05T17:10:22.152Z,15.90
2022-10-05T17:13:16.414Z,15.90
2022-10-05T17:16:22.176Z,15.80
2022-10-05T17:19:19.812Z,15.80
2022-10-05T17:22:00.642Z,15.70
2022-10-05T17:24:36.853Z,15.70
2022-10-05T17:27:25.257Z,15.60
2022-10-05T17:29:55.622Z,15.60
2022-10-05T17:32:23.169Z,15.50
2022-10-05T17:35:18.522Z,15.50
2022-10-05T17:38:17.423Z,15.40
2022-10-05T17:41:08.222Z,15.40
2022-10-05T17:43:35.949Z,15.30
2022-10-05T17:46:06.915Z,15.30
2022-10-05T17:49:02.489Z,15.20
2022-10-05T17:51:49.770Z,15.20
2022-10-05T17:54:41.564Z,15.20
2022-10-05T17:57:08.910Z,15.10
2022-10-05T17:59:49.711Z,15.10
2022-10-05T18:02:26.979Z,15.10
2022-10-05T18:05:15.275Z,15.00
2022-10-05T18:07:48.190Z,15.00
2022-10-05T18:10:28.926Z,14.90
2022-10-05T18:12:59.619Z,14.90
2022-10-05T18:15:29.405Z,14.80
2022-10-05T18:18:35.715Z,14.80
2022-10-05T18:21:11.629Z,14.70
2022-10-05T18:23:42.050Z,14.60
2022-10-05T18:26:45.104Z,14.60
2022-10-05T18:29:38.961Z,14.50
2022-10-05T18:32:27.099Z,14.40
2022-10-05T18:35:19.941Z,14.40
2022-10-05T18:38:07.030Z,14.30
2022-10-05T18:40:57.488Z,14.20
2022-10-05T18:43:51.501Z,14.20
2022-10-05T18:46:49.859Z,14.20
2022-10-05T18:49:52.960Z,14.20
2022-10-05T18:52:46.556Z,14.10
2022-10-05T18:55:20.719Z,14.00
2022-10-05T18:58:08.080Z,14.00
2022-10-05T19:01:03.439Z,14.00
2022-10-05T19:03:57.271Z,14.00
2022-10-05T19:06:32.186Z,14.00
2022-10-05T19:08:59.422Z,13.90
2022-10-05T19:11:28.445Z,13.90
2022-10-05T19:14:20.257Z,13.90
2022-10-05T19:17:19.288Z,13.80
2022-10-05T19:20:07.478Z,13.80
2022-10-05T19:22:54.893Z,13.80
2022-10-05T19:25:32.722Z,13.70
2022-10-05T19:28:21.337Z,13.70
2022-10-05T19:30:49.511Z,13.70
2022-10-05T19:33:32.427Z,13.60
2022-10-05T19:36:26.198Z,13.60
2022-10-05T19:39:19.706Z,13.60
2022-10-05T19:41:52.181Z,13.50
2022-10-05T19:44:45.436Z,13.50
2022-10-05T19:47:36.357Z,13.50
2022-10-05T19:50:27.606Z,13.40
2022-10-05T19:53:08.562Z,13.40
2022-10-05T19:55:41.657Z,13.40
2022-10-05T19:58:28.247Z,13.30
2022-10-05T20:00:59.135Z,13.30
2022-10-05T20:03:32.902Z,13.30
2022-10-05T20:06:01.963Z,13.30
2022-10-05T20:08:39.554Z,13.30
2022-10-05T20:11:09.428Z,13.30
2022-10-05T20:13:37.346Z,13.20
2022-10-05T20:16:37.490Z,13.20
2022-10-05T20:19:52.290Z,13.10
2022-10-05T20:22:34.297Z,13.10
2022-10-05T20:25:03.825Z,13.00
2022-10-05T20:27:47.995Z,12.90
2022-10-05T20:30:29.324Z,12.80
2022-10-05T20:32:59.748Z,12.80
2022-10-05T20:35:35.294Z,12.70
2022-10-05T20:38:10.144Z,12.60
2022-10-05T20:40:39.966Z,12.60
2022-10-05T20:43:09.606Z,12.60
2022-10-05T20:45:44.979Z,12.60
2022-10-05T20:48:17.077Z,12.50
2022-10-05T20:50:50.580Z,12.50
2022-10-05T20:53:24.151Z,12.50
2022-10-05T20:55:58.577Z,12.40
2022-10-05T20:58:27.539Z,12.40
2022-10-05T21:01:16.154Z,12.30
2022-10-05T21:03:43.267Z,12.20
2022-10-05T21:06:11.058Z,12.20
2022-10-05T21:08:44.166Z,12.00
2022-10-05T21:11:12.305Z,11.90
2022-10-05T21:13:47.097Z,11.90
2022-10-05T21:16:18.691Z,11.80
2022-10-05T21:18:48.834Z,11.70
2022-10-05T21:21:18.037Z,11.70
2022-10-05T21:23:48.714Z,11.60
2022-10-05T21:26:16.074Z,11.60
2022-10-05T21:28:46.132Z,11.60
2022-10-05T21:31:13.531Z,11.60
2022-10-05T21:33:40.618Z,11.50
2022-10-05T21:36:08.180Z,11.50
2022-10-05T21:38:35.302Z,11.40
2022-10-05T21:41:03.251Z,11.40
2022-10-05T21:43:30.640Z,11.30
2022-10-05T21:45:58.428Z,11.30
2022-10-05T21:48:27.102Z,11.30
2022-10-05T21:50:54.469Z,11.30
2022-10-05T21:53:26.040Z,11.20
2022-10-05T21:55:53.644Z,11.20
2022-10-05T21:58:22.553Z,11.20
2022-10-05T22:00:49.792Z,11.10
2022-10-05T22:03:16.863Z,11.10
2022-10-05T22:05:44.785Z,11.10
2022-10-05T22:08:33.184Z,11.10
2022-10-05T22:11:01.724Z,11.10
2022-10-05T22:13:43.189Z,11.10
2022-10-05T22:16:10.358Z,11.10
2022-10-05T22:18:37.865Z,11.00
2022-10-05T22:21:07.170Z,11.00
2022-10-05T22:23:35.839Z,11.00
2022-10-05T22:26:04.214Z,10.90
2022-10-05T22:28:33.008Z,10.80
2022-10-05T22:31:04.015Z,10.80
2022-10-05T22:33:31.642Z,10.70
2022-10-05T22:36:00.358Z,10.70
2022-10-05T22:38:30.458Z,10.70
2022-10-05T22:40:57.965Z,10.70
2022-10-05T22:43:27.049Z,10.60
2022-10-05T22:45:55.058Z,10.60
2022-10-05T22:48:22.501Z,10.60
2022-10-05T22:50:49.632Z,10.60
2022-10-05T22:53:17.133Z,10.60
2022-10-05T22:55:44.294Z,10.70
2022-10-05T22:58:11.441Z,10.70
2022-10-05T23:00:57.559Z,10.70
2022-10-05T23:03:25.423Z,10.60
2022-10-05T23:06:03.201Z,10.60
2022-10-05T23:08:32.162Z,10.50
2022-10-05T23:11:03.428Z,10.50
2022-10-05T23:13:31.223Z,10.40
2022-10-05T23:15:58.363Z,10.40
2022-10-05T23:18:26.168Z,10.30
2022-10-05T23:20:54.852Z,10.40
2022-10-05T23:23:23.415Z,10.30
2022-10-05T23:25:50.586Z,10.20
2022-10-05T23:28:17.766Z,10.20
2022-10-05T23:30:45.233Z,10.20
2022-10-05T23:33:12.435Z,10.10
2022-10-05T23:35:39.509Z,10.10
2022-10-05T23:38:06.717Z,10.10
2022-10-05T23:40:34.100Z,10.10
2022-10-05T23:43:01.177Z,10.00
2022-10-05T23:45:28.264Z,10.00
2022-10-05T23:47:55.331Z,10.00
2022-10-05T23:50:25.028Z,10.00
2022-10-05T23:52:52.111Z,9.90
2022-10-05T23:55:19.252Z,10.00
2022-10-05T23:57:46.395Z,9.90
